createdAt,value
2018-10-09T00:00:19.451Z,101554.98
2018-10-09T00:02:48.819Z,101555.78
2018-10-09T00:05:18.456Z,101550.44
2018-10-09T00:07:48.134Z,101561.77
2018-10-09T00:10:17.845Z,101565.61
2018-10-09T00:12:47.589Z,101555.86
2018-10-09T00:15:16.921Z,101557.18
2018-10-09T00:17:46.352Z,101561.53
2018-10-09T00:20:24.179Z,101563.20
2018-10-09T00:23:00.212Z,101567.55
2018-10-09T00:25:30.019Z,101564.00
2018-10-09T00:27:59.788Z,101567.49
2018-10-09T00:30:29.523Z,101563.07
2018-10-09T00:32:59.295Z,101565.22
2018-10-09T00:35:28.696Z,101567.36
2018-10-09T00:37:58.415Z,101562.09
2018-10-09T00:40:27.820Z,101566.48
2018-10-09T00:42:57.165Z,101552.44
2018-10-09T00:45:26.970Z,101553.73
2018-10-09T00:47:56.692Z,101550.70
2018-10-09T00:50:26.408Z,101546.33
2018-10-09T00:52:56.144Z,101545.41
2018-10-09T00:55:25.898Z,101544.12
2018-10-09T00:57:55.644Z,101537.98
2018-10-09T01:00:25.327Z,101530.55
2018-10-09T01:02:54.736Z,101528.83
2018-10-09T01:05:24.424Z,101524.45
2018-10-09T01:07:53.845Z,101523.14
2018-10-09T01:10:23.606Z,101518.31
2018-10-09T01:12:53.345Z,101514.83
2018-10-09T01:15:22.710Z,101505.22
2018-10-09T01:17:52.456Z,101500.83
2018-10-09T01:20:36.740Z,101498.17
2018-10-09T01:23:07.237Z,101503.91
2018-10-09T01:25:37.846Z,101503.05
2018-10-09T01:28:07.608Z,101499.54
2018-10-09T01:30:37.299Z,101497.36
2018-10-09T01:33:07.124Z,101501.34
2018-10-09T01:35:36.824Z,101503.99
2018-10-09T01:38:06.639Z,101502.23
2018-10-09T01:40:36.364Z,101504.84
2018-10-09T01:43:06.175Z,101509.20
2018-10-09T01:45:35.932Z,101511.39
2018-10-09T01:48:05.365Z,101502.62
2018-10-09T01:50:35.085Z,101504.36
2018-10-09T01:53:04.526Z,101496.05
2018-10-09T01:55:34.297Z,101490.80
2018-10-09T01:58:03.920Z,101498.25
2018-10-09T02:00:33.592Z,101494.33
2018-10-09T02:03:03.434Z,101499.97
2018-10-09T02:05:32.786Z,101504.80
2018-10-09T02:08:02.501Z,101498.61
2018-10-09T02:10:32.319Z,101497.74
2018-10-09T02:13:01.995Z,101501.30
2018-10-09T02:15:31.408Z,101496.50
2018-10-09T02:18:01.089Z,101489.05
2018-10-09T02:20:30.883Z,101496.41
2018-10-09T02:23:00.244Z,101496.84
2018-10-09T02:25:29.944Z,101495.48
2018-10-09T02:27:59.294Z,101495.91
2018-10-09T02:30:28.980Z,101498.09
2018-10-09T02:32:58.750Z,101494.17
2018-10-09T02:35:28.518Z,101496.39
2018-10-09T02:37:57.948Z,101510.86
2018-10-09T02:40:27.332Z,101509.13
2018-10-09T02:42:57.070Z,101509.53
2018-10-09T02:45:26.465Z,101510.84
2018-10-09T02:47:56.267Z,101504.69
2018-10-09T02:50:25.643Z,101506.41
2018-10-09T02:52:55.049Z,101514.69
2018-10-09T02:55:24.907Z,101515.10
2018-10-09T02:57:54.705Z,101521.67
2018-10-09T03:00:24.126Z,101522.91
2018-10-09T03:02:53.890Z,101522.86
2018-10-09T03:05:23.276Z,101530.23
2018-10-09T03:07:53.244Z,101534.18
2018-10-09T03:10:23.078Z,101528.37
2018-10-09T03:12:52.850Z,101523.45
2018-10-09T03:15:22.607Z,101519.05
2018-10-09T03:17:52.336Z,101525.16
2018-10-09T03:20:22.106Z,101522.94
2018-10-09T03:22:51.939Z,101526.42
2018-10-09T03:25:21.319Z,101522.48
2018-10-09T03:27:51.045Z,101530.41
2018-10-09T03:30:20.785Z,101544.40
2018-10-09T03:32:50.614Z,101544.40
2018-10-09T03:35:20.410Z,101548.28
2018-10-09T03:37:50.195Z,101536.36
2018-10-09T03:40:20.002Z,101546.92
2018-10-09T03:42:49.759Z,101539.49
2018-10-09T03:45:19.500Z,101539.92
2018-10-09T03:47:49.271Z,101534.16
2018-10-09T03:50:18.679Z,101541.55
2018-10-09T03:52:49.007Z,101535.42
2018-10-09T03:55:19.747Z,101533.66
2018-10-09T03:57:50.395Z,101534.52
2018-10-09T04:00:19.847Z,101534.52
2018-10-09T04:02:50.026Z,101533.20
2018-10-09T04:05:20.146Z,101536.28
2018-10-09T04:07:50.942Z,101535.91
2018-10-09T04:10:20.423Z,101534.19
2018-10-09T04:12:50.243Z,101517.58
2018-10-09T04:15:21.223Z,101517.58
2018-10-09T04:17:50.704Z,101515.86
2018-10-09T04:20:20.802Z,101514.09
2018-10-09T04:22:50.742Z,101521.09
2018-10-09T04:25:21.142Z,101514.53
2018-10-09T04:27:50.587Z,101517.14
2018-10-09T04:30:20.142Z,101514.97
2018-10-09T04:32:50.157Z,101520.23
2018-10-09T04:35:20.302Z,101513.64
2018-10-09T04:37:51.426Z,101518.48
2018-10-09T04:40:20.788Z,101525.05
2018-10-09T04:42:50.534Z,101520.66
2018-10-09T04:45:20.300Z,101520.18
2018-10-09T04:47:50.087Z,101528.00
2018-10-09T04:50:19.818Z,101523.60
2018-10-09T04:52:49.544Z,101529.77
2018-10-09T04:55:18.894Z,101537.19
2018-10-09T04:57:48.752Z,101535.88
2018-10-09T05:00:18.821Z,101537.19
2018-10-09T05:02:48.682Z,101548.57
2018-10-09T05:05:18.103Z,101547.29
2018-10-09T05:07:47.842Z,101552.08
2018-10-09T05:10:17.348Z,101547.69
2018-10-09T05:12:46.814Z,101547.66
2018-10-09T05:15:16.658Z,101545.47
2018-10-09T05:17:46.479Z,101542.41
2018-10-09T05:20:15.859Z,101543.27
2018-10-09T05:22:45.261Z,101540.12
2018-10-09T05:25:14.965Z,101513.72
2018-10-09T05:27:44.442Z,101539.33
2018-10-09T05:30:14.183Z,101545.13
2018-10-09T05:32:43.991Z,101553.53
2018-10-09T05:35:13.428Z,101557.16
2018-10-09T05:37:43.264Z,101548.61
2018-10-09T05:40:13.373Z,101555.76
2018-10-09T05:42:43.182Z,101548.85
2018-10-09T05:45:14.097Z,101554.27
2018-10-09T05:47:43.891Z,101557.91
2018-10-09T05:50:13.703Z,101558.49
2018-10-09T05:52:43.229Z,101558.20
2018-10-09T05:55:14.342Z,101561.41
2018-10-09T05:57:43.772Z,101561.94
2018-10-09T06:00:18.435Z,101552.43
2018-10-09T06:02:48.992Z,101553.45
2018-10-09T06:05:19.370Z,101550.13
2018-10-09T06:07:49.178Z,101553.78
2018-10-09T06:10:18.614Z,101558.28
2018-10-09T06:12:48.396Z,101568.48
2018-10-09T06:15:17.874Z,101564.18
2018-10-09T06:17:47.600Z,101568.69
2018-10-09T06:20:17.470Z,101569.66
2018-10-09T06:22:47.298Z,101567.09
2018-10-09T06:25:17.058Z,101572.00
2018-10-09T06:27:46.414Z,101575.09
2018-10-09T06:30:18.613Z,101573.33
2018-10-09T06:32:48.287Z,101583.48
2018-10-09T06:35:18.042Z,101583.50
2018-10-09T06:37:52.958Z,101583.51
2018-10-09T06:40:23.192Z,101586.59
2018-10-09T06:42:52.621Z,101585.72
2018-10-09T06:45:22.029Z,101588.80
2018-10-09T06:47:51.793Z,101587.50
2018-10-09T06:50:23.240Z,101582.23
2018-10-09T06:52:53.032Z,101582.66
2018-10-09T06:55:22.378Z,101583.53
2018-10-09T06:57:52.562Z,101587.51
2018-10-09T07:00:22.881Z,101590.60
2018-10-09T07:02:53.334Z,101595.45
2018-10-09T07:05:22.709Z,101598.55
2018-10-09T07:07:52.486Z,101591.91
2018-10-09T07:10:21.826Z,101596.75
2018-10-09T07:12:52.220Z,101603.28
2018-10-09T07:15:22.062Z,101612.52
2018-10-09T07:17:52.680Z,101612.02
2018-10-09T07:20:22.437Z,101611.53
2018-10-09T07:22:52.962Z,101608.80
2018-10-09T07:25:22.674Z,101615.33
2018-10-09T07:27:52.438Z,101614.83
2018-10-09T07:30:22.134Z,101620.52
2018-10-09T07:32:51.886Z,101616.44
2018-10-09T07:35:22.088Z,101617.23
2018-10-09T07:37:51.493Z,101616.72
2018-10-09T07:40:21.088Z,101614.45
2018-10-09T07:42:52.528Z,101614.00
2018-10-09T07:45:27.895Z,101616.63
2018-10-09T07:47:57.776Z,101613.81
2018-10-09T07:50:27.621Z,101616.28
2018-10-09T07:52:57.581Z,101614.78
2018-10-09T07:55:27.734Z,101618.47
2018-10-09T07:57:57.737Z,101628.40
2018-10-09T08:00:27.165Z,101636.20
2018-10-09T08:02:57.928Z,101630.02
2018-10-09T08:05:28.120Z,101639.38
2018-10-09T08:07:58.570Z,101645.48
2018-10-09T08:10:28.044Z,101645.26
2018-10-09T08:12:57.810Z,101635.23
2018-10-09T08:15:27.245Z,101641.45
2018-10-09T08:17:57.027Z,101637.73
2018-10-09T08:20:26.866Z,101633.36
2018-10-09T08:22:57.088Z,101633.63
2018-10-09T08:25:26.485Z,101644.36
2018-10-09T08:27:55.947Z,101645.92
2018-10-09T08:30:25.429Z,101637.92
2018-10-09T08:32:54.815Z,101631.78
2018-10-09T08:35:24.692Z,101642.90
2018-10-09T08:37:54.500Z,101640.32
2018-10-09T08:40:23.970Z,101642.47
2018-10-09T08:42:54.530Z,101646.59
2018-10-09T08:45:24.624Z,101637.13
2018-10-09T08:47:55.394Z,101642.52
2018-10-09T08:50:24.837Z,101643.28
2018-10-09T08:52:54.247Z,101644.20
2018-10-09T08:55:24.137Z,101638.69
2018-10-09T08:57:53.571Z,101648.91
2018-10-09T09:00:23.484Z,101654.55
2018-10-09T09:02:53.424Z,101654.02
2018-10-09T09:05:23.217Z,101652.04
2018-10-09T09:07:53.222Z,101653.11
2018-10-09T09:10:23.003Z,101658.64
2018-10-09T09:12:52.839Z,101666.15
2018-10-09T09:15:22.317Z,101658.56
2018-10-09T09:17:52.293Z,101659.90
2018-10-09T09:20:22.170Z,101656.03
2018-10-09T09:22:52.647Z,101652.44
2018-10-09T09:25:22.700Z,101644.97
2018-10-09T09:27:52.856Z,101645.69
2018-10-09T09:30:22.560Z,101646.95
2018-10-09T09:32:52.105Z,101642.73
2018-10-09T09:35:21.905Z,101645.05
2018-10-09T09:37:51.793Z,101645.72
2018-10-09T09:40:21.367Z,101644.84
2018-10-09T09:42:50.863Z,101644.30
2018-10-09T09:45:21.449Z,101652.07
2018-10-09T09:47:51.481Z,101646.62
2018-10-09T09:50:21.184Z,101658.16
2018-10-09T09:52:51.411Z,101654.29
2018-10-09T09:55:21.256Z,101646.83
2018-10-09T09:57:51.032Z,101654.92
2018-10-09T10:00:26.765Z,101656.73
2018-10-09T10:02:56.785Z,101659.02
2018-10-09T10:05:26.573Z,101652.84
2018-10-09T10:07:56.021Z,101651.68
2018-10-09T10:10:25.430Z,101659.46
2018-10-09T10:12:55.527Z,101667.90
2018-10-09T10:15:25.291Z,101666.17
2018-10-09T10:17:55.045Z,101655.44
2018-10-09T10:20:25.891Z,101652.91
2018-10-09T10:22:55.701Z,101653.77
2018-10-09T10:25:25.098Z,101657.63
2018-10-09T10:27:55.015Z,101658.76
2018-10-09T10:30:24.830Z,101656.98
2018-10-09T10:32:54.254Z,101658.44
2018-10-09T10:35:23.707Z,101654.08
2018-10-09T10:37:53.611Z,101660.73
2018-10-09T10:40:23.080Z,101648.57
2018-10-09T10:42:52.877Z,101656.91
2018-10-09T10:45:22.731Z,101660.22
2018-10-09T10:47:52.632Z,101660.69
2018-10-09T10:50:22.572Z,101654.54
2018-10-09T10:52:52.409Z,101656.03
2018-10-09T10:55:22.292Z,101652.77
2018-10-09T10:57:51.734Z,101649.41
2018-10-09T11:00:21.156Z,101641.84
2018-10-09T11:02:50.987Z,101642.95
2018-10-09T11:05:20.539Z,101631.55
2018-10-09T11:07:50.093Z,101632.89
2018-10-09T11:10:19.897Z,101627.77
2018-10-09T11:12:49.987Z,101625.41
2018-10-09T11:15:19.507Z,101621.86
2018-10-09T11:17:49.503Z,101621.46
2018-10-09T11:20:20.102Z,101623.09
2018-10-09T11:22:50.298Z,101621.45
2018-10-09T11:25:20.351Z,101618.77
2018-10-09T11:27:50.180Z,101609.83
2018-10-09T11:30:19.992Z,101606.52
2018-10-09T11:32:49.404Z,101610.97
2018-10-09T11:35:19.151Z,101606.31
2018-10-09T11:37:48.904Z,101600.08
2018-10-09T11:40:18.649Z,101600.89
2018-10-09T11:42:48.419Z,101601.77
2018-10-09T11:45:18.331Z,101598.48
2018-10-09T11:47:48.059Z,101594.73
2018-10-09T11:50:17.495Z,101594.57
2018-10-09T11:52:46.906Z,101587.56
2018-10-09T11:55:16.446Z,101590.23
2018-10-09T11:57:45.957Z,101594.42
2018-10-09T12:00:15.737Z,101597.36
2018-10-09T12:02:45.542Z,101590.13
2018-10-09T12:05:15.132Z,101584.03
2018-10-09T12:07:44.946Z,101586.28
2018-10-09T12:10:15.017Z,101589.25
2018-10-09T12:12:44.488Z,101592.73
2018-10-09T12:15:14.312Z,101592.31
2018-10-09T12:17:43.762Z,101590.57
2018-10-09T12:20:13.175Z,101591.44
2018-10-09T12:22:43.009Z,101581.61
2018-10-09T12:25:12.404Z,101568.80
2018-10-09T12:27:41.828Z,101574.16
2018-10-09T12:30:11.687Z,101571.42
2018-10-09T12:32:41.658Z,101569.47
2018-10-09T12:35:12.123Z,101568.46
2018-10-09T12:37:41.711Z,101565.96
2018-10-09T12:40:11.707Z,101573.46
2018-10-09T12:42:41.076Z,101579.27
2018-10-09T12:45:10.985Z,101580.50
2018-10-09T12:47:41.343Z,101579.73
2018-10-09T12:50:11.276Z,101581.67
2018-10-09T12:52:41.070Z,101582.42
2018-10-09T12:55:10.557Z,101581.74
2018-10-09T12:57:40.397Z,101579.92
2018-10-09T13:00:10.309Z,101581.95
2018-10-09T13:02:40.103Z,101576.34
2018-10-09T13:05:09.943Z,101573.70
2018-10-09T13:07:39.817Z,101579.22
2018-10-09T13:10:09.801Z,101569.13
2018-10-09T13:12:39.301Z,101576.78
2018-10-09T13:15:11.163Z,101571.25
2018-10-09T13:17:41.383Z,101576.67
2018-10-09T13:20:10.752Z,101573.34
2018-10-09T13:22:40.196Z,101576.78
2018-10-09T13:25:09.699Z,101571.55
2018-10-09T13:27:39.452Z,101568.65
2018-10-09T13:30:09.572Z,101574.86
2018-10-09T13:32:39.402Z,101575.86
2018-10-09T13:35:09.221Z,101567.75
2018-10-09T13:37:39.246Z,101562.37
2018-10-09T13:40:08.724Z,101565.52
2018-10-09T13:42:38.534Z,101563.52
2018-10-09T13:45:08.359Z,101563.92
2018-10-09T13:47:37.890Z,101563.70
2018-10-09T13:50:07.640Z,101558.19
2018-10-09T13:52:37.458Z,101556.20
2018-10-09T13:55:07.400Z,101551.53
2018-10-09T13:57:37.539Z,101550.48
2018-10-09T14:00:07.618Z,101543.71
2018-10-09T14:02:37.440Z,101541.38
2018-10-09T14:05:06.942Z,101538.59
2018-10-09T14:07:36.862Z,101530.27
2018-10-09T14:10:07.085Z,101532.52
2018-10-09T14:12:36.506Z,101531.16
2018-10-09T14:15:06.112Z,101532.65
2018-10-09T14:17:35.970Z,101534.63
2018-10-09T14:20:05.964Z,101531.33
2018-10-09T14:22:35.527Z,101524.24
2018-10-09T14:25:05.254Z,101518.35
2018-10-09T14:27:36.021Z,101514.63
2018-10-09T14:30:06.508Z,101513.11
2018-10-09T14:32:35.884Z,101507.63
2018-10-09T14:35:05.904Z,101504.23
2018-10-09T14:37:35.610Z,101503.42
2018-10-09T14:40:05.151Z,101503.95
2018-10-09T14:42:34.590Z,101498.30
2018-10-09T14:45:04.080Z,101495.21
2018-10-09T14:47:33.502Z,101489.47
2018-10-09T14:50:02.998Z,101494.50
2018-10-09T14:52:33.574Z,101492.48
2018-10-09T14:55:03.018Z,101488.34
2018-10-09T14:57:32.976Z,101488.26
2018-10-09T15:00:02.743Z,101484.11
2018-10-09T15:02:32.630Z,101485.47
2018-10-09T15:05:02.056Z,101478.29
2018-10-09T15:07:31.835Z,101480.32
2018-10-09T15:10:01.683Z,101477.92
2018-10-09T15:12:31.102Z,101478.39
2018-10-09T15:15:00.947Z,101469.92
2018-10-09T15:17:30.824Z,101478.27
2018-10-09T15:20:00.355Z,101484.69
2018-10-09T15:22:30.246Z,101487.19
2018-10-09T15:25:00.094Z,101478.98
2018-10-09T15:27:29.514Z,101476.31
2018-10-09T15:29:58.912Z,101480.06
2018-10-09T15:32:28.386Z,101470.35
2018-10-09T15:34:57.864Z,101470.98
2018-10-09T15:37:27.264Z,101469.87
2018-10-09T15:39:57.049Z,101478.12
2018-10-09T15:42:26.800Z,101483.50
2018-10-09T15:44:56.562Z,101485.73
2018-10-09T15:47:26.361Z,101491.86
2018-10-09T15:49:56.157Z,101498.95
2018-10-09T15:52:25.601Z,101501.14
2018-10-09T15:54:55.449Z,101505.59
2018-10-09T15:57:25.325Z,101506.98
2018-10-09T15:59:54.758Z,101505.59
2018-10-09T16:02:24.219Z,101506.10
2018-10-09T16:04:54.014Z,101505.30
2018-10-09T16:07:23.731Z,101509.75
2018-10-09T16:09:53.530Z,101510.72
2018-10-09T16:12:23.808Z,101508.92
2018-10-09T16:14:54.673Z,101515.89
2018-10-09T16:17:24.084Z,101516.84
2018-10-09T16:19:53.941Z,101516.45
2018-10-09T16:22:23.846Z,101512.52
2018-10-09T16:24:53.514Z,101520.92
2018-10-09T16:27:23.027Z,101515.59
2018-10-09T16:29:52.825Z,101528.81
2018-10-09T16:35:16.273Z,101532.81
2018-10-09T16:37:50.920Z,101534.09
2018-10-09T16:40:23.660Z,101538.00
2018-10-09T16:42:54.994Z,101542.25
2018-10-09T16:45:24.915Z,101551.38
2018-10-09T16:47:54.860Z,101557.80
2018-10-09T16:50:24.390Z,101561.08
2018-10-09T16:52:54.532Z,101564.83
2018-10-09T16:55:24.336Z,101562.22
2018-10-09T16:57:54.291Z,101562.86
2018-10-09T17:00:24.445Z,101569.78
2018-10-09T17:02:54.493Z,101578.97
2018-10-09T17:05:24.422Z,101571.97
2018-10-09T17:07:54.369Z,101571.71
2018-10-09T17:10:23.884Z,101567.69
2018-10-09T17:12:53.725Z,101576.91
2018-10-09T17:15:23.678Z,101571.89
2018-10-09T17:17:53.094Z,101575.70
2018-10-09T17:20:22.915Z,101584.12
2018-10-09T17:22:52.945Z,101584.15
2018-10-09T17:25:22.594Z,101578.47
2018-10-09T17:27:52.082Z,101586.10
2018-10-09T17:30:21.547Z,101586.27
2018-10-09T17:32:51.171Z,101582.91
2018-10-09T17:35:21.074Z,101582.17
2018-10-09T17:37:51.296Z,101585.39
2018-10-09T17:40:21.182Z,101580.98
2018-10-09T17:42:55.741Z,101582.79
2018-10-09T17:45:25.438Z,101579.68
2018-10-09T17:47:55.004Z,101591.77
2018-10-09T17:50:24.629Z,101594.12
2018-10-09T17:52:54.635Z,101591.97
2018-10-09T17:55:24.653Z,101593.69
2018-10-09T17:57:54.560Z,101586.25
2018-10-09T18:00:24.483Z,101589.38
2018-10-09T18:02:54.393Z,101595.43
2018-10-09T18:05:24.265Z,101594.56
2018-10-09T18:07:54.281Z,101595.13
2018-10-09T18:10:24.205Z,101593.44
2018-10-09T18:12:53.677Z,101600.10
2018-10-09T18:15:23.269Z,101593.11
2018-10-09T18:17:53.650Z,101590.55
2018-10-09T18:20:23.679Z,101594.98
2018-10-09T18:22:56.756Z,101595.56
2018-10-09T18:25:27.058Z,101591.20
2018-10-09T18:27:56.545Z,101595.72
2018-10-09T18:30:28.868Z,101595.78
2018-10-09T18:32:59.409Z,101589.13
2018-10-09T18:35:29.792Z,101594.06
2018-10-09T18:38:00.168Z,101591.41
2018-10-09T18:40:32.032Z,101596.72
2018-10-09T18:43:02.420Z,101595.45
2018-10-09T18:45:32.137Z,101597.23
2018-10-09T18:48:02.693Z,101597.73
2018-10-09T18:50:33.096Z,101591.61
2018-10-09T18:53:03.673Z,101592.97
2018-10-09T18:55:33.724Z,101599.63
2018-10-09T18:58:04.066Z,101593.92
2018-10-09T19:00:34.820Z,101601.06
2018-10-09T19:03:05.373Z,101600.18
2018-10-09T19:05:35.964Z,101601.53
2018-10-09T19:08:06.041Z,101592.25
2018-10-09T19:10:36.107Z,101589.13
2018-10-09T19:13:06.145Z,101588.27
2018-10-09T19:15:36.707Z,101595.74
2018-10-09T19:18:06.919Z,101599.63
2018-10-09T19:20:36.827Z,101600.02
2018-10-09T19:23:06.532Z,101597.80
2018-10-09T19:25:36.496Z,101596.92
2018-10-09T19:28:06.241Z,101595.20
2018-10-09T19:30:36.122Z,101590.78
2018-10-09T19:33:05.665Z,101594.41
2018-10-09T19:35:35.586Z,101599.33
2018-10-09T19:38:05.573Z,101597.19
2018-10-09T19:40:37.051Z,101601.21
2018-10-09T19:43:06.898Z,101598.65
2018-10-09T19:45:36.698Z,101604.95
2018-10-09T19:48:06.293Z,101608.08
2018-10-09T19:50:36.189Z,101608.15
2018-10-09T19:53:06.868Z,101615.63
2018-10-09T19:55:36.895Z,101620.58
2018-10-09T19:58:06.952Z,101621.48
2018-10-09T20:00:36.861Z,101625.09
2018-10-09T20:03:06.972Z,101625.13
2018-10-09T20:05:36.491Z,101624.78
2018-10-09T20:08:06.803Z,101620.44
2018-10-09T20:10:36.391Z,101621.86
2018-10-09T20:13:06.707Z,101627.19
2018-10-09T20:15:36.327Z,101632.12
2018-10-09T20:18:06.390Z,101634.42
2018-10-09T20:20:36.315Z,101637.53
2018-10-09T20:23:05.793Z,101635.39
2018-10-09T20:25:35.729Z,101630.55
2018-10-09T20:28:05.596Z,101638.03
2018-10-09T20:30:35.376Z,101630.59
2018-10-09T20:33:04.814Z,101630.63
2018-10-09T20:35:34.683Z,101628.42
2018-10-09T20:38:04.472Z,101625.80
2018-10-09T20:40:33.900Z,101618.75
2018-10-09T20:43:03.772Z,101620.95
2018-10-09T20:45:33.629Z,101620.45
2018-10-09T20:48:03.056Z,101619.45
2018-10-09T20:50:32.491Z,101623.62
2018-10-09T20:53:02.289Z,101622.73
2018-10-09T20:55:31.744Z,101629.30
2018-10-09T20:58:01.562Z,101630.67
2018-10-09T21:00:31.361Z,101630.69
2018-10-09T21:03:00.808Z,101628.50
2018-10-09T21:05:30.672Z,101619.97
2018-10-09T21:08:00.096Z,101620.80
2018-10-09T21:10:29.603Z,101618.68
2018-10-09T21:12:59.627Z,101617.43
2018-10-09T21:15:29.504Z,101617.00
2018-10-09T21:17:59.521Z,101616.57
2018-10-09T21:20:28.991Z,101613.80
2018-10-09T21:22:58.898Z,101607.95
2018-10-09T21:25:28.739Z,101607.48
2018-10-09T21:27:58.247Z,101609.62
2018-10-09T21:30:28.171Z,101614.02
2018-10-09T21:32:57.964Z,101619.27
2018-10-09T21:35:27.814Z,101608.19
2018-10-09T21:37:57.750Z,101615.72
2018-10-09T21:40:27.607Z,101615.73
2018-10-09T21:42:57.381Z,101615.26
2018-10-09T21:45:26.836Z,101621.00
2018-10-09T21:47:58.508Z,101612.53
2018-10-09T21:50:28.669Z,101610.74
2018-10-09T21:52:58.967Z,101622.67
2018-10-09T21:55:29.205Z,101621.70
2018-10-09T21:57:59.069Z,101622.94
2018-10-09T22:00:28.929Z,101628.69
2018-10-09T22:02:58.719Z,101626.53
2018-10-09T22:05:28.183Z,101619.11
2018-10-09T22:07:57.999Z,101617.39
2018-10-09T22:10:27.768Z,101624.56
2018-10-09T22:12:57.167Z,101621.58
2018-10-09T22:15:26.927Z,101615.03
2018-10-09T22:17:56.781Z,101625.72
2018-10-09T22:20:26.513Z,101625.73
2018-10-09T22:22:56.310Z,101631.06
2018-10-09T22:25:26.125Z,101629.81
2018-10-09T22:27:55.950Z,101635.16
2018-10-09T22:30:25.340Z,101629.47
2018-10-09T22:32:54.721Z,101630.34
2018-10-09T22:35:24.132Z,101628.58
2018-10-09T22:37:53.513Z,101632.19
2018-10-09T22:40:22.944Z,101637.96
2018-10-09T22:42:52.722Z,101642.41
2018-10-09T22:45:22.497Z,101643.77
2018-10-09T22:47:52.277Z,101643.73
2018-10-09T22:50:22.039Z,101640.23
2018-10-09T22:52:51.820Z,101641.50
2018-10-09T22:55:21.500Z,101640.17
2018-10-09T22:57:51.238Z,101638.05
2018-10-09T23:00:21.543Z,101640.34
2018-10-09T23:02:50.897Z,101643.05
2018-10-09T23:05:20.643Z,101657.70
2018-10-09T23:07:50.401Z,101655.08
2018-10-09T23:10:19.858Z,101651.56
2018-10-09T23:12:49.700Z,101648.98
2018-10-09T23:15:19.539Z,101640.66
2018-10-09T23:17:49.625Z,101649.55
2018-10-09T23:20:19.382Z,101648.66
2018-10-09T23:22:49.159Z,101648.22
2018-10-09T23:25:18.944Z,101646.02
2018-10-09T23:27:48.393Z,101649.92
2018-10-09T23:30:17.797Z,101652.20
2018-10-09T23:32:47.616Z,101654.02
2018-10-09T23:35:16.965Z,101654.56
2018-10-09T23:37:46.779Z,101650.20
2018-10-09T23:40:16.556Z,101652.00
2018-10-09T23:42:46.350Z,101647.15
2018-10-09T23:45:15.713Z,101648.92
2018-10-09T23:47:45.105Z,101641.46
2018-10-09T23:50:14.515Z,101641.50
2018-10-09T23:52:44.316Z,101640.21
2018-10-09T23:55:14.105Z,101637.56
2018-10-09T23:57:43.461Z,101636.23
